createdAt,value
2022-10-18T00:01:31.268Z,17.50
2022-10-18T00:03:59.620Z,17.40
2022-10-18T00:06:27.155Z,17.40
2022-10-18T00:08:54.689Z,17.40
2022-10-18T00:11:22.234Z,17.40
2022-10-18T00:13:49.771Z,17.30
2022-10-18T00:16:18.073Z,17.30
2022-10-18T00:18:45.685Z,17.30
2022-10-18T00:21:13.231Z,17.20
2022-10-18T00:23:40.775Z,17.20
2022-10-18T00:26:11.095Z,17.20
2022-10-18T00:28:38.638Z,17.10
2022-10-18T00:31:09.592Z,17.10
2022-10-18T00:33:37.145Z,17.10
2022-10-18T00:36:04.682Z,17.10
2022-10-18T00:38:32.205Z,17.10
2022-10-18T00:40:59.779Z,17.10
2022-10-18T00:43:27.314Z,17.10
2022-10-18T00:45:54.829Z,17.30
2022-10-18T00:48:22.384Z,17.30
2022-10-18T00:50:49.910Z,17.50
2022-10-18T00:53:17.443Z,17.40
2022-10-18T00:55:45.207Z,17.30
2022-10-18T00:58:12.749Z,17.30
2022-10-18T01:00:40.284Z,17.50
2022-10-18T01:03:07.850Z,17.60
2022-10-18T01:05:37.785Z,17.60
2022-10-18T01:08:20.464Z,17.50
2022-10-18T01:11:12.281Z,17.40
2022-10-18T01:13:55.706Z,17.20
2022-10-18T01:16:32.732Z,17.20
2022-10-18T01:19:18.959Z,17.10
2022-10-18T01:21:55.432Z,17.10
2022-10-18T01:24:44.311Z,17.10
2022-10-18T01:27:24.193Z,17.30
2022-10-18T01:30:09.786Z,17.20
2022-10-18T01:32:37.321Z,17.30
2022-10-18T01:35:04.858Z,17.20
2022-10-18T01:37:33.240Z,17.20
2022-10-18T01:40:00.290Z,17.10
2022-10-18T01:42:28.581Z,17.00
2022-10-18T01:44:56.156Z,17.00
2022-10-18T01:47:23.680Z,17.00
2022-10-18T01:49:51.984Z,16.90
2022-10-18T01:52:19.550Z,16.90
2022-10-18T01:54:47.083Z,16.90
2022-10-18T01:57:20.801Z,16.80
2022-10-18T01:59:51.341Z,16.80
2022-10-18T02:02:18.877Z,16.80
2022-10-18T02:04:47.185Z,16.80
2022-10-18T02:07:33.329Z,16.80
2022-10-18T02:10:12.568Z,16.80
2022-10-18T02:12:40.906Z,16.80
2022-10-18T02:15:08.491Z,16.80
2022-10-18T02:17:36.025Z,16.80
2022-10-18T02:20:03.641Z,16.80
2022-10-18T02:22:31.315Z,16.80
2022-10-18T02:24:58.669Z,16.80
2022-10-18T02:27:26.224Z,17.10
2022-10-18T02:29:53.748Z,17.30
2022-10-18T02:32:32.932Z,17.30
2022-10-18T02:35:00.386Z,17.20
2022-10-18T02:37:27.946Z,17.10
2022-10-18T02:39:56.234Z,17.30
2022-10-18T02:42:23.761Z,17.20
2022-10-18T02:44:51.284Z,17.20
2022-10-18T02:47:18.860Z,17.20
2022-10-18T02:49:47.172Z,17.10
2022-10-18T02:52:14.715Z,17.10
2022-10-18T02:54:42.595Z,17.00
2022-10-18T02:57:10.119Z,17.00
2022-10-18T02:59:38.422Z,17.00
2022-10-18T03:02:05.997Z,17.00
2022-10-18T03:04:33.527Z,17.00
2022-10-18T03:07:01.824Z,16.90
2022-10-18T03:09:29.388Z,16.90
2022-10-18T03:11:56.913Z,16.90
2022-10-18T03:14:26.044Z,16.90
2022-10-18T03:16:55.145Z,16.90
2022-10-18T03:19:22.689Z,16.80
2022-10-18T03:21:50.232Z,16.90
2022-10-18T03:24:17.816Z,16.90
2022-10-18T03:26:45.351Z,16.80
2022-10-18T03:29:13.646Z,16.80
2022-10-18T03:31:41.199Z,16.80
2022-10-18T03:34:08.733Z,16.80
2022-10-18T03:36:37.038Z,16.80
2022-10-18T03:39:04.611Z,16.70
2022-10-18T03:41:32.136Z,16.80
2022-10-18T03:43:59.670Z,16.80
2022-10-18T03:46:27.214Z,16.80
2022-10-18T03:48:54.758Z,16.80
2022-10-18T03:51:22.279Z,16.80
2022-10-18T03:53:49.868Z,16.80
2022-10-18T03:56:17.435Z,16.80
2022-10-18T03:58:44.977Z,16.80
2022-10-18T04:01:12.621Z,16.80
2022-10-18T04:03:40.076Z,16.80
2022-10-18T04:06:07.611Z,16.80
2022-10-18T04:08:35.976Z,16.80
2022-10-18T04:11:09.465Z,16.80
2022-10-18T04:13:37.039Z,16.80
2022-10-18T04:16:04.625Z,16.80
2022-10-18T04:18:32.146Z,16.80
2022-10-18T04:20:59.681Z,17.10
2022-10-18T04:23:27.244Z,17.10
2022-10-18T04:25:54.769Z,17.30
2022-10-18T04:28:22.305Z,17.30
2022-10-18T04:30:50.646Z,17.10
2022-10-18T04:33:18.183Z,17.10
2022-10-18T04:35:45.716Z,17.30
2022-10-18T04:38:13.280Z,17.50
2022-10-18T04:40:40.817Z,17.40
2022-10-18T04:43:09.126Z,17.20
2022-10-18T04:45:36.691Z,17.20
2022-10-18T04:48:04.226Z,17.20
2022-10-18T04:50:31.761Z,17.10
2022-10-18T04:53:00.105Z,17.30
2022-10-18T04:55:27.637Z,17.20
2022-10-18T04:57:55.170Z,17.30
2022-10-18T05:00:23.514Z,17.10
2022-10-18T05:02:51.069Z,17.10
2022-10-18T05:05:18.613Z,17.10
2022-10-18T05:07:46.216Z,17.10
2022-10-18T05:10:14.545Z,17.30
2022-10-18T05:12:42.828Z,17.20
2022-10-18T05:15:10.973Z,17.20
2022-10-18T05:17:38.498Z,17.10
2022-10-18T05:20:06.898Z,17.10
2022-10-18T05:22:34.741Z,17.10
2022-10-18T05:25:02.738Z,17.30
2022-10-18T05:27:30.279Z,17.30
2022-10-18T05:30:00.021Z,17.30
2022-10-18T05:32:26.137Z,17.20
2022-10-18T05:34:53.682Z,17.10
2022-10-18T05:37:26.100Z,17.00
2022-10-18T05:39:49.549Z,17.00
2022-10-18T05:42:17.086Z,17.00
2022-10-18T05:44:44.648Z,16.90
2022-10-18T05:47:12.194Z,16.80
2022-10-18T05:49:40.495Z,16.80
2022-10-18T05:52:08.070Z,16.80
2022-10-18T05:54:35.597Z,16.80
2022-10-18T05:57:03.129Z,16.70
2022-10-18T05:59:31.463Z,16.80
2022-10-18T06:01:59.008Z,16.70
2022-10-18T06:04:26.542Z,16.80
2022-10-18T06:06:54.883Z,16.80
2022-10-18T06:09:22.420Z,16.70
2022-10-18T06:11:49.967Z,16.80
2022-10-18T06:14:17.528Z,16.80
2022-10-18T06:16:45.063Z,16.80
2022-10-18T06:19:13.406Z,16.80
2022-10-18T06:21:40.989Z,16.80
2022-10-18T06:24:09.291Z,17.00
2022-10-18T06:26:36.828Z,17.00
2022-10-18T06:29:05.209Z,17.10
2022-10-18T06:31:32.682Z,17.00
2022-10-18T06:34:00.208Z,17.00
2022-10-18T06:36:28.559Z,17.20
2022-10-18T06:38:56.095Z,17.20
2022-10-18T06:41:23.639Z,17.20
2022-10-18T06:43:51.213Z,17.10
2022-10-18T06:46:18.738Z,17.10
2022-10-18T06:48:46.262Z,17.10
2022-10-18T06:51:13.837Z,17.10
2022-10-18T06:53:44.334Z,17.10
2022-10-18T06:56:09.684Z,17.10
2022-10-18T06:58:38.028Z,17.10
2022-10-18T07:01:08.288Z,17.10
2022-10-18T07:03:35.824Z,17.10
2022-10-18T07:06:03.407Z,17.30
2022-10-18T07:08:31.019Z,17.30
2022-10-18T07:10:58.478Z,17.30
2022-10-18T07:13:32.414Z,17.30
2022-10-18T07:16:02.862Z,17.50
2022-10-18T07:18:30.475Z,17.50
2022-10-18T07:20:57.981Z,17.50
2022-10-18T07:23:26.273Z,17.40
2022-10-18T07:25:53.856Z,17.40
2022-10-18T07:28:21.405Z,17.40
2022-10-18T07:30:48.936Z,17.30
2022-10-18T07:33:16.501Z,17.30
2022-10-18T07:35:44.049Z,17.30
2022-10-18T07:38:11.580Z,17.30
2022-10-18T07:40:39.154Z,17.30
2022-10-18T07:43:11.393Z,17.30
2022-10-18T07:45:35.018Z,17.30
2022-10-18T07:48:03.352Z,17.30
2022-10-18T07:50:30.878Z,17.30
2022-10-18T07:52:58.413Z,17.40
2022-10-18T07:55:25.997Z,17.30
2022-10-18T07:57:53.522Z,17.40
2022-10-18T08:00:21.136Z,17.40
2022-10-18T08:02:49.389Z,17.40
2022-10-18T08:05:16.922Z,17.40
2022-10-18T08:07:44.469Z,17.40
2022-10-18T08:10:12.809Z,17.50
2022-10-18T08:12:40.344Z,17.50
2022-10-18T08:15:07.988Z,17.50
2022-10-18T08:17:35.615Z,17.80
2022-10-18T08:20:12.248Z,17.80
2022-10-18T08:22:30.641Z,17.90
2022-10-18T08:24:58.217Z,17.90
2022-10-18T08:27:25.749Z,17.90
2022-10-18T08:29:54.114Z,18.00
2022-10-18T08:32:21.626Z,17.90
2022-10-18T08:34:49.161Z,18.00
2022-10-18T08:37:16.696Z,18.00
2022-10-18T08:39:45.049Z,18.00
2022-10-18T08:42:30.910Z,18.00
2022-10-18T08:44:58.097Z,18.10
2022-10-18T08:47:31.530Z,18.10
2022-10-18T08:50:01.743Z,18.30
2022-10-18T08:52:57.625Z,18.60
2022-10-18T08:55:25.162Z,18.60
2022-10-18T08:57:52.686Z,18.50
2022-10-18T09:00:26.992Z,18.70
2022-10-18T09:03:01.361Z,18.60
2022-10-18T09:05:44.572Z,18.60
2022-10-18T09:08:17.579Z,18.60
2022-10-18T09:10:54.290Z,18.60
2022-10-18T09:13:27.969Z,18.50
2022-10-18T09:16:07.250Z,18.50
2022-10-18T09:18:46.877Z,18.60
2022-10-18T09:21:23.223Z,18.60
2022-10-18T09:23:50.779Z,18.60
2022-10-18T09:26:18.775Z,18.70
2022-10-18T09:28:52.708Z,18.60
2022-10-18T09:31:26.970Z,18.70
2022-10-18T09:33:57.253Z,18.70
2022-10-18T09:36:24.818Z,18.80
2022-10-18T09:38:52.352Z,19.00
2022-10-18T09:41:25.462Z,19.10
2022-10-18T09:43:55.721Z,19.00
2022-10-18T09:46:23.255Z,19.00
2022-10-18T09:48:59.907Z,19.00
2022-10-18T09:51:27.493Z,19.00
2022-10-18T09:53:58.071Z,18.90
2022-10-18T09:56:28.844Z,18.90
2022-10-18T09:58:56.388Z,18.90
2022-10-18T10:01:26.732Z,18.90
2022-10-18T10:03:54.303Z,19.00
2022-10-18T10:06:27.765Z,18.90
2022-10-18T10:09:01.390Z,19.00
2022-10-18T10:11:31.663Z,19.00
2022-10-18T10:13:59.201Z,19.10
2022-10-18T10:16:26.765Z,19.10
2022-10-18T10:18:54.293Z,19.10
2022-10-18T10:21:21.815Z,19.40
2022-10-18T10:23:52.068Z,19.40
2022-10-18T10:26:25.603Z,19.40
2022-10-18T10:28:53.168Z,19.30
2022-10-18T10:31:32.672Z,19.30
2022-10-18T10:34:03.308Z,19.50
2022-10-18T10:36:30.833Z,19.80
2022-10-18T10:39:07.269Z,19.70
2022-10-18T10:41:34.829Z,19.60
2022-10-18T10:44:05.283Z,19.50
2022-10-18T10:46:35.642Z,19.50
2022-10-18T10:51:30.701Z,19.40
2022-10-18T10:53:58.266Z,19.50
2022-10-18T10:56:29.286Z,19.50
2022-10-18T10:58:56.884Z,19.50
2022-10-18T11:01:24.386Z,19.50
2022-10-18T11:03:51.948Z,19.50
2022-10-18T11:06:43.480Z,19.50
2022-10-18T11:09:16.695Z,19.50
2022-10-18T11:11:44.988Z,19.80
2022-10-18T11:14:27.062Z,19.80
2022-10-18T11:16:49.303Z,19.70
2022-10-18T11:19:35.378Z,19.80
2022-10-18T11:22:02.916Z,19.70
2022-10-18T11:24:30.438Z,19.80
2022-10-18T11:26:58.013Z,20.00
2022-10-18T11:29:28.717Z,20.00
2022-10-18T11:32:09.043Z,20.00
2022-10-18T11:34:42.534Z,20.00
2022-10-18T11:37:27.246Z,20.00
2022-10-18T11:39:49.409Z,20.00
2022-10-18T11:42:39.949Z,20.20
2022-10-18T11:45:11.221Z,20.50
2022-10-18T11:47:50.957Z,20.70
2022-10-18T11:50:25.327Z,20.50
2022-10-18T11:52:55.565Z,20.40
2022-10-18T11:55:59.727Z,20.40
2022-10-18T11:58:54.704Z,20.30
2022-10-18T12:01:35.186Z,20.10
2022-10-18T12:04:14.388Z,20.00
2022-10-18T12:06:41.962Z,20.00
2022-10-18T12:09:31.475Z,20.10
2022-10-18T12:11:59.640Z,20.00
2022-10-18T12:14:29.841Z,20.00
2022-10-18T12:17:20.294Z,19.90
2022-10-18T12:19:28.633Z,19.90
2022-10-18T12:21:56.946Z,19.90
2022-10-18T12:24:24.483Z,19.90
2022-10-18T12:26:52.832Z,19.90
2022-10-18T12:29:32.251Z,19.90
2022-10-18T12:31:59.825Z,20.00
2022-10-18T12:34:39.058Z,20.20
2022-10-18T12:37:09.586Z,20.20
2022-10-18T12:39:45.113Z,20.40
2022-10-18T12:42:14.304Z,20.80
2022-10-18T12:44:41.868Z,20.80
2022-10-18T12:47:09.413Z,20.80
2022-10-18T12:49:39.126Z,20.70
2022-10-18T12:52:22.875Z,20.60
2022-10-18T12:55:02.247Z,20.50
2022-10-18T12:57:29.883Z,20.50
2022-10-18T12:59:57.334Z,20.40
2022-10-18T13:02:24.909Z,20.40
2022-10-18T13:04:52.500Z,20.50
2022-10-18T13:07:22.646Z,20.50
2022-10-18T13:10:08.524Z,20.70
2022-10-18T13:12:36.041Z,20.70
2022-10-18T13:15:34.216Z,20.70
2022-10-18T13:18:10.591Z,20.70
2022-10-18T13:20:38.953Z,20.70
2022-10-18T13:25:58.231Z,20.90
2022-10-18T13:28:31.909Z,21.20
2022-10-18T13:31:29.758Z,21.20
2022-10-18T13:33:57.290Z,21.20
2022-10-18T13:36:25.598Z,21.20
2022-10-18T13:38:56.262Z,21.20
2022-10-18T13:41:32.739Z,21.20
2022-10-18T13:43:59.521Z,21.20
2022-10-18T13:46:34.168Z,21.30
2022-10-18T13:49:16.793Z,21.30
2022-10-18T13:52:02.377Z,21.40
2022-10-18T13:55:06.676Z,21.40
2022-10-18T13:58:01.582Z,21.50
2022-10-18T14:00:48.162Z,21.50
2022-10-18T14:06:03.364Z,21.40
2022-10-18T14:08:55.583Z,21.40
2022-10-18T14:11:46.087Z,21.50
2022-10-18T14:14:36.311Z,21.40
2022-10-18T14:17:34.468Z,21.50
2022-10-18T14:20:49.122Z,21.50
2022-10-18T14:23:11.598Z,21.50
2022-10-18T14:25:39.133Z,21.40
2022-10-18T14:28:21.660Z,21.30
2022-10-18T14:30:59.063Z,21.20
2022-10-18T14:33:32.447Z,21.10
2022-10-18T14:36:11.547Z,21.10
2022-10-18T14:38:36.122Z,21.10
2022-10-18T14:41:07.183Z,21.00
2022-10-18T14:43:34.726Z,20.90
2022-10-18T14:46:18.301Z,20.80
2022-10-18T14:49:01.139Z,20.80
2022-10-18T14:51:28.701Z,20.80
2022-10-18T14:53:56.256Z,20.80
2022-10-18T14:56:32.931Z,20.70
2022-10-18T14:59:08.197Z,20.90
2022-10-18T15:01:36.547Z,20.70
2022-10-18T15:04:04.074Z,20.70
2022-10-18T15:06:31.611Z,20.70
2022-10-18T15:08:59.148Z,20.60
2022-10-18T15:11:26.719Z,20.50
2022-10-18T15:13:55.030Z,20.40
2022-10-18T15:16:22.552Z,20.40
2022-10-18T15:19:12.656Z,20.20
2022-10-18T15:21:40.935Z,20.10
2022-10-18T15:24:20.697Z,20.10
2022-10-18T15:26:48.241Z,20.10
2022-10-18T15:29:18.871Z,20.00
2022-10-18T15:31:46.481Z,20.00
2022-10-18T15:34:19.971Z,20.10
2022-10-18T15:36:47.524Z,20.10
2022-10-18T15:39:17.823Z,20.20
2022-10-18T15:41:48.177Z,20.30
2022-10-18T15:44:18.339Z,20.40
2022-10-18T15:46:47.271Z,20.40
2022-10-18T15:49:36.181Z,20.40
2022-10-18T15:52:10.117Z,20.50
2022-10-18T15:54:37.682Z,20.50
2022-10-18T15:57:08.455Z,20.50
2022-10-18T15:59:36.009Z,20.60
2022-10-18T16:02:03.608Z,20.80
2022-10-18T16:04:31.073Z,20.80
2022-10-18T16:06:59.403Z,20.80
2022-10-18T16:09:26.941Z,20.80
2022-10-18T16:11:57.214Z,20.70
2022-10-18T16:14:22.069Z,20.50
2022-10-18T16:16:49.614Z,20.40
2022-10-18T16:19:17.158Z,20.20
2022-10-18T16:21:44.745Z,20.10
2022-10-18T16:24:12.350Z,19.90
2022-10-18T16:26:39.871Z,19.80
2022-10-18T16:29:08.523Z,19.90
2022-10-18T16:31:35.980Z,19.80
2022-10-18T16:34:03.519Z,19.90
2022-10-18T16:36:31.850Z,19.60
2022-10-18T16:38:59.375Z,19.50
2022-10-18T16:41:26.946Z,19.40
2022-10-18T16:43:54.503Z,19.30
2022-10-18T16:46:22.034Z,19.20
2022-10-18T16:48:49.548Z,19.00
2022-10-18T16:51:17.133Z,18.90
2022-10-18T16:53:44.679Z,18.80
2022-10-18T16:56:20.601Z,18.70
2022-10-18T16:58:49.092Z,18.60
2022-10-18T17:01:16.731Z,18.50
2022-10-18T17:03:44.268Z,18.40
2022-10-18T17:06:14.439Z,18.30
2022-10-18T17:08:41.972Z,18.20
2022-10-18T17:11:09.511Z,18.10
2022-10-18T17:13:37.840Z,18.00
2022-10-18T17:16:05.424Z,18.00
2022-10-18T17:18:32.949Z,17.90
2022-10-18T17:21:00.521Z,17.80
2022-10-18T17:23:28.037Z,17.80
2022-10-18T17:26:05.476Z,17.70
2022-10-18T17:28:23.146Z,17.70
2022-10-18T17:30:50.670Z,17.60
2022-10-18T17:33:18.194Z,17.50
2022-10-18T17:35:45.765Z,17.50
2022-10-18T17:38:13.298Z,17.60
2022-10-18T17:40:40.812Z,17.60
2022-10-18T17:43:08.396Z,17.50
2022-10-18T17:45:36.692Z,17.40
2022-10-18T17:48:05.524Z,17.30
2022-10-18T17:50:34.675Z,17.20
2022-10-18T17:53:02.713Z,17.10
2022-10-18T17:55:30.226Z,17.00
2022-10-18T17:57:57.811Z,16.90
2022-10-18T18:00:25.361Z,17.10
2022-10-18T18:02:52.945Z,17.00
2022-10-18T18:05:20.478Z,17.20
2022-10-18T18:07:48.003Z,17.10
2022-10-18T18:10:15.537Z,17.00
2022-10-18T18:12:43.869Z,16.70
2022-10-18T18:15:11.414Z,16.70
2022-10-18T18:17:55.934Z,16.60
2022-10-18T18:20:06.701Z,16.80
2022-10-18T18:22:36.913Z,16.70
2022-10-18T18:25:01.719Z,16.60
2022-10-18T18:27:29.424Z,16.50
2022-10-18T18:29:56.951Z,16.50
2022-10-18T18:32:24.487Z,16.40
2022-10-18T18:34:53.113Z,16.30
2022-10-18T18:37:20.637Z,16.20
2022-10-18T18:39:48.159Z,16.20
2022-10-18T18:42:15.748Z,16.20
2022-10-18T18:44:44.049Z,16.30
2022-10-18T18:47:13.242Z,16.30
2022-10-18T18:49:39.906Z,16.20
2022-10-18T18:52:07.444Z,16.20
2022-10-18T18:54:34.966Z,16.10
2022-10-18T18:57:03.326Z,15.90
2022-10-18T18:59:30.862Z,15.90
2022-10-18T19:01:58.378Z,15.90
2022-10-18T19:04:26.769Z,16.00
2022-10-18T19:06:54.317Z,16.00
2022-10-18T19:09:22.618Z,15.80
2022-10-18T19:11:50.211Z,15.80
2022-10-18T19:14:17.848Z,15.80
2022-10-18T19:16:51.062Z,15.70
2022-10-18T19:19:18.636Z,15.60
2022-10-18T19:21:46.160Z,15.60
2022-10-18T19:24:13.708Z,15.50
2022-10-18T19:26:41.270Z,15.50
2022-10-18T19:29:14.242Z,15.50
2022-10-18T19:31:41.777Z,15.50
2022-10-18T19:34:10.151Z,15.40
2022-10-18T19:36:37.671Z,15.40
2022-10-18T19:39:05.186Z,15.40
2022-10-18T19:41:32.765Z,15.40
2022-10-18T19:44:00.285Z,15.40
2022-10-18T19:46:28.756Z,15.30
2022-10-18T19:48:56.330Z,15.30
2022-10-18T19:51:27.852Z,15.30
2022-10-18T19:53:52.177Z,15.30
2022-10-18T19:56:19.760Z,15.20
2022-10-18T19:58:47.287Z,15.20
2022-10-18T20:01:15.633Z,15.20
2022-10-18T20:03:43.174Z,15.10
2022-10-18T20:06:10.700Z,15.20
2022-10-18T20:08:38.282Z,15.10
2022-10-18T20:11:05.817Z,15.10
2022-10-18T20:13:33.342Z,15.10
2022-10-18T20:16:00.870Z,15.10
2022-10-18T20:18:28.451Z,15.10
2022-10-18T20:20:56.005Z,15.20
2022-10-18T20:23:23.550Z,15.40
2022-10-18T20:25:59.837Z,15.40
2022-10-18T20:28:27.415Z,15.60
2022-10-18T20:31:03.918Z,15.60
2022-10-18T20:33:31.451Z,15.70
2022-10-18T20:36:01.951Z,15.60
2022-10-18T20:38:29.494Z,15.40
2022-10-18T20:40:57.029Z,15.30
2022-10-18T20:43:24.574Z,15.30
2022-10-18T20:45:54.944Z,15.50
2022-10-18T20:48:22.478Z,15.40
2022-10-18T20:50:50.003Z,15.30
2022-10-18T20:53:18.335Z,15.10
2022-10-18T20:55:45.882Z,15.10
2022-10-18T20:58:13.415Z,15.10
2022-10-18T21:00:41.237Z,15.10
2022-10-18T21:03:08.804Z,15.10
2022-10-18T21:05:36.314Z,15.10
2022-10-18T21:08:05.091Z,15.10
2022-10-18T21:10:32.626Z,15.10
2022-10-18T21:13:00.174Z,15.10
2022-10-18T21:15:28.544Z,15.10
2022-10-18T21:17:56.074Z,15.10
2022-10-18T21:20:23.602Z,15.10
2022-10-18T21:22:51.162Z,15.00
2022-10-18T21:25:18.698Z,14.90
2022-10-18T21:27:46.231Z,14.80
2022-10-18T21:30:13.817Z,14.70
2022-10-18T21:32:41.350Z,14.70
2022-10-18T21:35:08.884Z,14.60
2022-10-18T21:37:36.449Z,14.60
2022-10-18T21:40:03.984Z,14.60
2022-10-18T21:42:31.823Z,14.50
2022-10-18T21:44:59.130Z,14.60
2022-10-18T21:47:26.675Z,14.60
2022-10-18T21:49:54.219Z,14.60
2022-10-18T21:52:21.823Z,14.80
2022-10-18T21:54:50.120Z,14.80
2022-10-18T21:57:18.432Z,14.80
2022-10-18T21:59:45.991Z,14.80
2022-10-18T22:02:13.514Z,14.80
2022-10-18T22:04:41.050Z,14.80
2022-10-18T22:07:08.634Z,14.70
2022-10-18T22:09:36.178Z,14.70
2022-10-18T22:12:04.501Z,14.70
2022-10-18T22:14:32.697Z,14.70
2022-10-18T22:17:00.024Z,14.70
2022-10-18T22:19:27.575Z,14.60
2022-10-18T22:21:55.179Z,14.60
2022-10-18T22:24:22.800Z,14.60
2022-10-18T22:26:51.085Z,14.60
2022-10-18T22:29:18.679Z,14.60
2022-10-18T22:31:46.205Z,14.60
2022-10-18T22:34:13.738Z,14.50
2022-10-18T22:36:41.303Z,14.50
2022-10-18T22:39:08.862Z,14.40
2022-10-18T22:41:36.402Z,14.30
2022-10-18T22:44:04.747Z,14.20
2022-10-18T22:46:32.268Z,14.20
2022-10-18T22:48:59.803Z,14.10
2022-10-18T22:51:27.452Z,14.30
2022-10-18T22:53:54.942Z,14.20
2022-10-18T22:56:22.476Z,14.20
2022-10-18T22:58:50.110Z,14.10
2022-10-18T23:01:17.623Z,14.10
2022-10-18T23:03:45.152Z,14.10
2022-10-18T23:06:19.362Z,14.00
2022-10-18T23:08:47.685Z,14.00
2022-10-18T23:11:15.228Z,14.00
2022-10-18T23:13:42.784Z,14.00
2022-10-18T23:16:10.327Z,13.90
2022-10-18T23:21:09.345Z,13.90
2022-10-18T23:23:36.896Z,13.90
2022-10-18T23:26:05.183Z,13.90
2022-10-18T23:28:35.602Z,13.90
2022-10-18T23:31:08.652Z,13.80
2022-10-18T23:33:36.205Z,13.80
2022-10-18T23:36:03.780Z,13.80
2022-10-18T23:38:32.092Z,14.00
2022-10-18T23:40:59.618Z,14.00
2022-10-18T23:43:27.950Z,14.20
2022-10-18T23:45:55.489Z,14.20
2022-10-18T23:48:23.028Z,14.20
2022-10-18T23:50:50.612Z,14.10
2022-10-18T23:53:18.157Z,14.10
2022-10-18T23:56:07.504Z,14.10
2022-10-18T23:58:35.028Z,14.10
